createdAt,value
2019-01-21T00:00:46.195Z,-2.80
2019-01-21T00:03:15.559Z,-2.90
2019-01-21T00:05:44.897Z,-2.90
2019-01-21T00:08:14.196Z,-2.90
2019-01-21T00:10:43.556Z,-2.90
2019-01-21T00:13:12.926Z,-2.90
2019-01-21T00:15:42.411Z,-2.90
2019-01-21T00:18:11.940Z,-2.90
2019-01-21T00:20:41.238Z,-2.90
2019-01-21T00:23:10.569Z,-2.80
2019-01-21T00:25:43.145Z,-2.80
2019-01-21T00:28:12.606Z,-2.80
2019-01-21T00:30:42.001Z,-2.80
2019-01-21T00:33:11.346Z,-2.80
2019-01-21T00:35:40.629Z,-2.80
2019-01-21T00:38:09.962Z,-2.80
2019-01-21T00:40:43.246Z,-2.80
2019-01-21T00:43:12.601Z,-2.90
2019-01-21T00:45:41.933Z,-2.90
2019-01-21T00:48:11.308Z,-2.90
2019-01-21T00:50:40.650Z,-2.90
2019-01-21T00:53:09.947Z,-2.90
2019-01-21T00:55:39.230Z,-2.90
2019-01-21T00:58:08.622Z,-2.90
2019-01-21T01:00:37.998Z,-2.90
2019-01-21T01:03:07.284Z,-2.90
2019-01-21T01:05:36.583Z,-2.90
2019-01-21T01:08:06.506Z,-3.00
2019-01-21T01:10:35.870Z,-3.00
2019-01-21T01:13:05.250Z,-3.00
2019-01-21T01:15:34.611Z,-3.00
2019-01-21T01:18:03.985Z,-3.00
2019-01-21T01:20:33.298Z,-3.00
2019-01-21T01:23:02.603Z,-3.00
2019-01-21T01:25:31.973Z,-2.90
2019-01-21T01:28:01.226Z,-2.90
2019-01-21T01:30:30.473Z,-2.90
2019-01-21T01:32:59.818Z,-2.90
2019-01-21T01:35:29.128Z,-2.90
2019-01-21T01:37:58.411Z,-2.90
2019-01-21T01:40:27.722Z,-2.90
2019-01-21T01:42:56.996Z,-2.90
2019-01-21T01:45:27.958Z,-2.90
2019-01-21T01:48:02.029Z,-2.80
2019-01-21T01:50:32.162Z,-2.80
2019-01-21T01:53:01.605Z,-2.80
2019-01-21T01:55:31.806Z,-2.80
2019-01-21T01:58:02.859Z,-2.80
2019-01-21T02:00:32.303Z,-2.80
2019-01-21T02:03:01.624Z,-2.80
2019-01-21T02:05:30.961Z,-2.80
2019-01-21T02:08:00.453Z,-2.80
2019-01-21T02:10:30.122Z,-2.80
2019-01-21T02:12:59.498Z,-2.90
2019-01-21T02:15:28.797Z,-2.90
2019-01-21T02:17:58.077Z,-2.90
2019-01-21T02:20:27.360Z,-2.90
2019-01-21T02:23:01.641Z,-2.90
2019-01-21T02:25:59.562Z,-2.90
2019-01-21T02:28:47.847Z,-2.90
2019-01-21T02:31:30.970Z,-2.90
2019-01-21T02:34:24.623Z,-3.00
2019-01-21T02:37:47.246Z,-3.10
2019-01-21T02:40:47.103Z,-3.10
2019-01-21T02:43:54.079Z,-3.10
2019-01-21T02:46:50.802Z,-3.10
2019-01-21T02:50:16.359Z,-3.10
2019-01-21T02:53:11.067Z,-3.10
2019-01-21T02:56:09.838Z,-3.10
2019-01-21T02:58:58.696Z,-3.10
2019-01-21T03:01:56.105Z,-3.10
2019-01-21T03:04:50.318Z,-3.20
2019-01-21T03:07:27.001Z,-3.20
2019-01-21T03:10:32.331Z,-3.20
2019-01-21T03:13:29.177Z,-3.20
2019-01-21T03:16:34.529Z,-3.20
2019-01-21T03:19:50.115Z,-3.20
2019-01-21T03:22:57.178Z,-3.20
2019-01-21T03:25:54.977Z,-3.20
2019-01-21T03:28:52.633Z,-3.20
2019-01-21T03:32:14.868Z,-3.20
2019-01-21T03:35:37.431Z,-3.20
2019-01-21T03:38:41.507Z,-3.20
2019-01-21T03:41:58.014Z,-3.20
2019-01-21T03:45:01.568Z,-3.40
2019-01-21T03:48:16.337Z,-3.40
2019-01-21T03:51:10.881Z,-3.50
2019-01-21T03:53:53.385Z,-3.60
2019-01-21T03:56:48.225Z,-3.60
2019-01-21T04:00:07.058Z,-3.60
2019-01-21T04:03:23.519Z,-3.60
2019-01-21T04:06:11.484Z,-3.60
2019-01-21T04:09:11.927Z,-3.70
2019-01-21T04:12:19.550Z,-3.70
2019-01-21T04:15:38.825Z,-3.70
2019-01-21T04:19:01.323Z,-3.80
2019-01-21T04:22:01.241Z,-3.80
2019-01-21T04:24:58.544Z,-3.80
2019-01-21T04:27:57.333Z,-3.90
2019-01-21T04:31:22.654Z,-3.90
2019-01-21T04:34:39.244Z,-3.90
2019-01-21T04:37:49.316Z,-3.80
2019-01-21T04:41:20.922Z,-3.80
2019-01-21T04:44:16.284Z,-3.80
2019-01-21T04:47:28.213Z,-3.80
2019-01-21T04:50:42.379Z,-3.80
2019-01-21T04:53:36.301Z,-3.80
2019-01-21T04:56:52.612Z,-3.80
2019-01-21T04:59:50.957Z,-3.80
2019-01-21T05:03:10.606Z,-3.90
2019-01-21T05:06:23.281Z,-4.00
2019-01-21T05:09:29.120Z,-4.00
2019-01-21T05:12:47.257Z,-4.00
2019-01-21T05:16:06.981Z,-4.00
2019-01-21T05:19:09.818Z,-4.00
2019-01-21T05:22:03.300Z,-4.00
2019-01-21T05:25:22.693Z,-4.00
2019-01-21T05:28:34.275Z,-4.00
2019-01-21T05:31:35.552Z,-4.00
2019-01-21T05:34:57.505Z,-4.00
2019-01-21T05:37:52.245Z,-4.00
2019-01-21T05:40:43.806Z,-4.00
2019-01-21T05:43:46.233Z,-4.00
2019-01-21T05:47:00.263Z,-4.00
2019-01-21T05:50:10.611Z,-4.00
2019-01-21T05:53:27.323Z,-4.00
2019-01-21T05:56:35.687Z,-4.10
2019-01-21T06:00:07.359Z,-4.10
2019-01-21T06:03:07.554Z,-4.10
2019-01-21T06:06:13.078Z,-4.10
2019-01-21T06:09:31.038Z,-4.10
2019-01-21T06:12:35.894Z,-4.10
2019-01-21T06:15:52.447Z,-4.10
2019-01-21T06:18:57.525Z,-4.10
2019-01-21T06:22:01.338Z,-4.20
2019-01-21T06:25:02.265Z,-4.20
2019-01-21T06:27:49.647Z,-4.20
2019-01-21T06:31:07.812Z,-4.30
2019-01-21T06:34:45.526Z,-4.40
2019-01-21T06:37:52.562Z,-4.40
2019-01-21T06:40:52.075Z,-4.40
2019-01-21T06:43:51.057Z,-4.40
2019-01-21T06:46:46.574Z,-4.40
2019-01-21T06:49:51.217Z,-4.50
2019-01-21T06:53:09.032Z,-4.50
2019-01-21T06:56:09.031Z,-4.50
2019-01-21T06:59:03.035Z,-4.60
2019-01-21T07:01:54.128Z,-4.60
2019-01-21T07:05:00.412Z,-4.70
2019-01-21T07:08:28.160Z,-4.70
2019-01-21T07:11:27.200Z,-4.70
2019-01-21T07:14:23.434Z,-4.70
2019-01-21T07:17:46.861Z,-4.70
2019-01-21T07:20:54.628Z,-4.80
2019-01-21T07:24:07.294Z,-4.80
2019-01-21T07:27:16.836Z,-4.80
2019-01-21T07:30:29.083Z,-4.90
2019-01-21T07:33:38.646Z,-4.90
2019-01-21T07:36:38.709Z,-4.90
2019-01-21T07:39:33.891Z,-4.90
2019-01-21T07:42:47.910Z,-4.90
2019-01-21T07:45:52.791Z,-4.80
2019-01-21T07:49:05.041Z,-4.80
2019-01-21T07:52:14.905Z,-4.70
2019-01-21T07:55:39.299Z,-4.60
2019-01-21T07:58:44.902Z,-4.60
2019-01-21T08:01:28.326Z,-4.50
2019-01-21T08:04:21.620Z,-4.40
2019-01-21T08:07:18.644Z,-4.30
2019-01-21T08:10:15.888Z,-4.20
2019-01-21T08:13:09.944Z,-4.10
2019-01-21T08:16:17.011Z,-4.10
2019-01-21T08:19:16.009Z,-4.20
2019-01-21T08:22:18.612Z,-4.30
2019-01-21T08:25:50.180Z,-4.40
2019-01-21T08:28:51.581Z,-4.40
2019-01-21T08:31:52.654Z,-4.50
2019-01-21T08:35:15.331Z,-4.50
2019-01-21T08:38:35.799Z,-4.40
2019-01-21T08:41:53.742Z,-4.30
2019-01-21T08:45:03.262Z,-4.10
2019-01-21T08:48:22.571Z,-3.90
2019-01-21T08:50:59.343Z,-3.60
2019-01-21T08:54:24.764Z,-2.90
2019-01-21T08:57:24.005Z,-2.30
2019-01-21T09:00:13.555Z,-1.70
2019-01-21T09:03:19.935Z,-1.30
2019-01-21T09:06:20.775Z,-0.80
2019-01-21T09:09:49.295Z,-0.20
2019-01-21T09:12:51.618Z,0.30
2019-01-21T09:16:08.289Z,0.40
2019-01-21T09:18:53.851Z,0.50
2019-01-21T09:22:06.934Z,0.10
2019-01-21T09:25:03.869Z,0.70
2019-01-21T09:28:05.410Z,1.10
2019-01-21T09:31:21.255Z,1.00
2019-01-21T09:34:07.050Z,1.20
2019-01-21T09:37:09.133Z,1.70
2019-01-21T09:40:14.491Z,1.10
2019-01-21T09:43:00.606Z,1.60
2019-01-21T09:46:26.636Z,1.70
2019-01-21T09:48:54.354Z,2.20
2019-01-21T09:51:24.951Z,1.90
2019-01-21T09:53:55.300Z,1.90
2019-01-21T09:56:26.783Z,1.90
2019-01-21T09:58:58.898Z,2.00
2019-01-21T10:01:29.769Z,2.50
2019-01-21T10:03:59.561Z,2.90
2019-01-21T10:06:42.123Z,3.20
2019-01-21T10:09:36.553Z,3.00
2019-01-21T10:13:04.722Z,3.10
2019-01-21T10:16:09.199Z,2.40
2019-01-21T10:19:27.434Z,2.50
2019-01-21T10:22:11.107Z,2.40
2019-01-21T10:25:28.626Z,2.20
2019-01-21T10:28:45.356Z,2.10
2019-01-21T10:31:41.995Z,2.50
2019-01-21T10:34:47.275Z,2.30
2019-01-21T10:37:52.902Z,2.90
2019-01-21T10:40:40.482Z,2.90
2019-01-21T10:43:43.577Z,3.00
2019-01-21T10:46:24.126Z,3.00
2019-01-21T10:49:26.015Z,3.10
2019-01-21T10:52:54.523Z,4.00
2019-01-21T10:56:10.466Z,4.20
2019-01-21T10:59:21.349Z,4.50
2019-01-21T11:02:30.451Z,4.40
2019-01-21T11:05:42.506Z,4.30
2019-01-21T11:08:38.342Z,4.50
2019-01-21T11:11:24.830Z,4.60
2019-01-21T11:14:44.295Z,4.40
2019-01-21T11:17:49.304Z,4.50
2019-01-21T11:21:03.287Z,5.00
2019-01-21T11:24:13.582Z,4.70
2019-01-21T11:27:20.359Z,4.40
2019-01-21T11:30:23.477Z,4.80
2019-01-21T11:33:48.791Z,4.70
2019-01-21T11:37:17.457Z,4.10
2019-01-21T11:40:26.593Z,4.10
2019-01-21T11:43:35.327Z,4.90
2019-01-21T11:46:41.153Z,4.20
2019-01-21T11:49:50.229Z,4.20
2019-01-21T11:53:00.140Z,4.60
2019-01-21T11:56:10.062Z,4.30
2019-01-21T11:59:10.559Z,4.20
2019-01-21T12:02:10.314Z,4.10
2019-01-21T12:05:12.345Z,3.90
2019-01-21T12:08:17.806Z,4.20
2019-01-21T12:11:29.319Z,4.10
2019-01-21T12:14:48.647Z,4.40
2019-01-21T12:17:44.684Z,4.50
2019-01-21T12:20:58.281Z,4.60
2019-01-21T12:24:17.930Z,4.20
2019-01-21T12:27:46.343Z,4.40
2019-01-21T12:31:01.829Z,4.60
2019-01-21T12:33:54.801Z,4.60
2019-01-21T12:37:14.228Z,4.50
2019-01-21T12:40:15.946Z,4.70
2019-01-21T12:43:05.942Z,4.90
2019-01-21T12:46:25.925Z,4.80
2019-01-21T12:49:35.380Z,4.90
2019-01-21T12:52:16.531Z,5.50
2019-01-21T12:55:07.605Z,5.20
2019-01-21T12:58:23.436Z,5.30
2019-01-21T13:01:29.856Z,5.20
2019-01-21T13:04:36.403Z,5.50
2019-01-21T13:07:45.026Z,5.80
2019-01-21T13:11:07.544Z,5.30
2019-01-21T13:14:29.775Z,5.10
2019-01-21T13:17:30.476Z,5.00
2019-01-21T13:20:34.931Z,5.50
2019-01-21T13:23:25.362Z,5.70
2019-01-21T13:26:33.382Z,5.20
2019-01-21T13:29:33.873Z,5.00
2019-01-21T13:32:41.387Z,5.20
2019-01-21T13:35:45.540Z,5.20
2019-01-21T13:38:37.633Z,5.20
2019-01-21T13:41:18.249Z,5.00
2019-01-21T13:44:40.388Z,5.10
2019-01-21T13:48:01.603Z,4.60
2019-01-21T13:50:58.656Z,4.60
2019-01-21T13:54:04.502Z,3.70
2019-01-21T13:57:08.150Z,3.40
2019-01-21T14:00:12.230Z,3.20
2019-01-21T14:02:54.155Z,2.90
2019-01-21T14:06:03.714Z,2.60
2019-01-21T14:09:12.911Z,2.60
2019-01-21T14:12:23.715Z,2.30
2019-01-21T14:15:36.252Z,2.20
2019-01-21T14:18:42.493Z,2.10
2019-01-21T14:21:27.942Z,2.00
2019-01-21T14:24:23.106Z,2.00
2019-01-21T14:27:20.902Z,2.10
2019-01-21T14:30:06.316Z,2.00
2019-01-21T14:33:05.897Z,2.00
2019-01-21T14:36:03.495Z,1.90
2019-01-21T14:39:11.094Z,1.80
2019-01-21T14:42:10.900Z,1.80
2019-01-21T14:45:29.714Z,1.70
2019-01-21T14:48:16.171Z,1.70
2019-01-21T14:51:14.649Z,1.60
2019-01-21T14:54:14.241Z,1.50
2019-01-21T14:57:24.007Z,1.50
2019-01-21T15:00:28.653Z,1.40
2019-01-21T15:03:45.137Z,1.40
2019-01-21T15:06:23.881Z,1.40
2019-01-21T15:09:36.632Z,1.40
2019-01-21T15:12:37.205Z,1.30
2019-01-21T15:15:43.795Z,1.30
2019-01-21T15:18:33.540Z,1.30
2019-01-21T15:21:18.452Z,1.30
2019-01-21T15:24:23.573Z,1.30
2019-01-21T15:27:26.214Z,1.30
2019-01-21T15:30:05.529Z,1.30
2019-01-21T15:32:54.363Z,1.30
2019-01-21T15:36:04.279Z,1.30
2019-01-21T15:39:27.037Z,1.30
2019-01-21T15:42:40.812Z,1.20
2019-01-21T15:45:39.928Z,1.20
2019-01-21T15:48:37.053Z,1.20
2019-01-21T15:52:08.908Z,1.20
2019-01-21T15:55:06.132Z,1.20
2019-01-21T15:57:52.414Z,1.20
2019-01-21T16:01:09.652Z,1.20
2019-01-21T16:03:44.672Z,1.20
2019-01-21T16:06:38.615Z,1.20
2019-01-21T16:09:31.143Z,1.20
2019-01-21T16:12:28.651Z,1.10
2019-01-21T16:15:13.848Z,1.10
2019-01-21T16:18:16.314Z,1.10
2019-01-21T16:21:12.691Z,1.10
2019-01-21T16:24:18.379Z,1.10
2019-01-21T16:26:53.752Z,1.10
2019-01-21T16:29:37.167Z,1.10
2019-01-21T16:32:11.658Z,1.10
2019-01-21T16:35:05.487Z,1.10
2019-01-21T16:38:07.280Z,1.10
2019-01-21T16:41:26.088Z,1.10
2019-01-21T16:43:55.364Z,1.00
2019-01-21T16:46:24.724Z,1.00
2019-01-21T16:48:54.126Z,1.00
2019-01-21T16:51:23.473Z,1.10
2019-01-21T16:53:52.874Z,1.00
2019-01-21T16:56:23.345Z,1.00
2019-01-21T16:58:52.643Z,1.00
2019-01-21T17:01:21.993Z,1.00
2019-01-21T17:03:51.343Z,1.00
2019-01-21T17:06:20.669Z,1.00
2019-01-21T17:08:50.121Z,1.00
2019-01-21T17:11:19.425Z,1.00
2019-01-21T17:13:48.793Z,1.00
2019-01-21T17:16:18.288Z,1.00
2019-01-21T17:18:47.555Z,0.90
2019-01-21T17:21:17.127Z,0.90
2019-01-21T17:23:46.420Z,0.90
2019-01-21T17:26:15.783Z,0.90
2019-01-21T17:28:45.166Z,0.90
2019-01-21T17:31:16.838Z,0.90
2019-01-21T17:33:46.220Z,0.90
2019-01-21T17:36:15.696Z,0.90
2019-01-21T17:38:45.187Z,0.90
2019-01-21T17:41:14.847Z,0.80
2019-01-21T17:43:44.170Z,0.80
2019-01-21T17:46:13.589Z,0.80
2019-01-21T17:48:43.121Z,0.80
2019-01-21T17:51:12.650Z,0.90
2019-01-21T17:53:42.203Z,0.80
2019-01-21T17:56:11.537Z,0.80
2019-01-21T17:58:41.071Z,0.80
2019-01-21T18:01:10.395Z,0.80
2019-01-21T18:03:39.866Z,0.80
2019-01-21T18:06:09.279Z,0.70
2019-01-21T18:08:38.603Z,0.70
2019-01-21T18:11:07.981Z,0.70
2019-01-21T18:13:37.394Z,0.70
2019-01-21T18:16:06.797Z,0.70
2019-01-21T18:18:36.318Z,0.70
2019-01-21T18:21:05.762Z,0.70
2019-01-21T18:23:35.103Z,0.60
2019-01-21T18:26:04.629Z,0.60
2019-01-21T18:28:34.027Z,0.60
2019-01-21T18:31:03.355Z,0.60
2019-01-21T18:33:32.755Z,0.60
2019-01-21T18:36:02.094Z,0.60
2019-01-21T18:38:31.527Z,0.60
2019-01-21T18:41:00.864Z,0.60
2019-01-21T18:43:30.371Z,0.60
2019-01-21T18:45:59.915Z,0.60
2019-01-21T18:48:29.390Z,0.60
2019-01-21T18:50:58.790Z,0.60
2019-01-21T18:53:28.199Z,0.60
2019-01-21T18:55:57.741Z,0.60
2019-01-21T18:58:27.351Z,0.60
2019-01-21T19:00:56.775Z,0.50
2019-01-21T19:03:26.312Z,0.50
2019-01-21T19:05:55.775Z,0.50
2019-01-21T19:08:25.265Z,0.40
2019-01-21T19:10:54.796Z,0.30
2019-01-21T19:13:24.242Z,0.30
2019-01-21T19:15:53.667Z,0.20
2019-01-21T19:18:23.059Z,0.20
2019-01-21T19:20:52.574Z,0.10
2019-01-21T19:23:22.026Z,0.10
2019-01-21T19:25:54.024Z,0.10
2019-01-21T19:28:23.483Z,0.00
2019-01-21T19:30:53.023Z,0.00
2019-01-21T19:33:22.417Z,0.00
2019-01-21T19:35:51.913Z,0.00
2019-01-21T19:38:21.495Z,0.10
2019-01-21T19:40:51.019Z,0.10
2019-01-21T19:43:20.606Z,0.00
2019-01-21T19:45:51.442Z,0.00
2019-01-21T19:48:20.926Z,0.00
2019-01-21T19:50:50.504Z,-0.10
2019-01-21T19:53:19.879Z,-0.10
2019-01-21T19:55:49.642Z,-0.20
2019-01-21T19:58:19.123Z,-0.20
2019-01-21T20:00:48.667Z,-0.30
2019-01-21T20:03:17.996Z,-0.30
2019-01-21T20:05:47.543Z,-0.40
2019-01-21T20:08:16.979Z,-0.40
2019-01-21T20:10:46.595Z,-0.40
2019-01-21T20:13:16.082Z,-0.50
2019-01-21T20:15:45.563Z,-0.50
2019-01-21T20:18:15.087Z,-0.50
2019-01-21T20:20:44.575Z,-0.60
2019-01-21T20:23:14.015Z,-0.70
2019-01-21T20:25:43.621Z,-0.80
2019-01-21T20:28:12.987Z,-0.80
2019-01-21T20:30:45.038Z,-0.90
2019-01-21T20:33:14.550Z,-1.00
2019-01-21T20:35:43.986Z,-1.10
2019-01-21T20:38:13.582Z,-1.20
2019-01-21T20:40:42.959Z,-1.30
2019-01-21T20:43:12.317Z,-1.30
2019-01-21T20:45:41.842Z,-1.30
2019-01-21T20:48:11.214Z,-1.30
2019-01-21T20:50:40.648Z,-1.20
2019-01-21T20:53:11.118Z,-1.20
2019-01-21T20:55:40.542Z,-1.20
2019-01-21T20:58:09.975Z,-1.20
2019-01-21T21:00:39.321Z,-1.20
2019-01-21T21:03:08.737Z,-1.20
2019-01-21T21:05:38.451Z,-1.30
2019-01-21T21:08:08.008Z,-1.30
2019-01-21T21:10:37.580Z,-1.40
2019-01-21T21:13:07.399Z,-1.40
2019-01-21T21:15:36.946Z,-1.40
2019-01-21T21:18:07.605Z,-1.40
2019-01-21T21:20:37.164Z,-1.50
2019-01-21T21:23:06.945Z,-1.50
2019-01-21T21:25:36.520Z,-1.50
2019-01-21T21:28:06.110Z,-1.50
2019-01-21T21:30:36.877Z,-1.40
2019-01-21T21:33:06.828Z,-1.40
2019-01-21T21:35:36.421Z,-1.40
2019-01-21T21:38:05.982Z,-1.30
2019-01-21T21:40:35.642Z,-1.20
2019-01-21T21:43:05.473Z,-1.10
2019-01-21T21:45:35.520Z,-1.10
2019-01-21T21:48:05.229Z,-1.10
2019-01-21T21:50:35.950Z,-1.10
2019-01-21T21:53:05.512Z,-1.10
2019-01-21T21:55:35.065Z,-1.10
2019-01-21T21:58:05.224Z,-1.20
2019-01-21T22:00:34.859Z,-1.20
2019-01-21T22:03:04.437Z,-1.20
2019-01-21T22:05:35.226Z,-1.30
2019-01-21T22:08:06.308Z,-1.40
2019-01-21T22:10:37.249Z,-1.40
2019-01-21T22:13:07.291Z,-1.50
2019-01-21T22:15:36.800Z,-1.60
2019-01-21T22:18:06.682Z,-1.60
2019-01-21T22:20:38.977Z,-1.60
2019-01-21T22:23:08.680Z,-1.60
2019-01-21T22:25:40.003Z,-1.60
2019-01-21T22:28:10.562Z,-1.70
2019-01-21T22:30:40.164Z,-1.70
2019-01-21T22:33:09.762Z,-1.70
2019-01-21T22:35:39.310Z,-1.70
2019-01-21T22:38:08.789Z,-1.60
2019-01-21T22:40:38.906Z,-1.70
2019-01-21T22:43:08.373Z,-1.70
2019-01-21T22:45:37.895Z,-1.70
2019-01-21T22:48:07.260Z,-1.70
2019-01-21T22:50:38.660Z,-1.80
2019-01-21T22:53:08.000Z,-1.80
2019-01-21T22:55:37.369Z,-1.90
2019-01-21T22:58:06.872Z,-2.00
2019-01-21T23:01:07.334Z,-2.10
2019-01-21T23:03:36.851Z,-2.20
2019-01-21T23:06:06.635Z,-2.20
2019-01-21T23:08:36.070Z,-2.20
2019-01-21T23:11:08.957Z,-2.10
2019-01-21T23:13:38.359Z,-2.00
2019-01-21T23:16:07.983Z,-1.80
2019-01-21T23:18:37.649Z,-1.70
2019-01-21T23:21:07.032Z,-1.60
2019-01-21T23:23:36.536Z,-1.50
2019-01-21T23:26:05.830Z,-1.40
2019-01-21T23:28:35.402Z,-1.40
2019-01-21T23:31:05.282Z,-1.40
2019-01-21T23:33:34.716Z,-1.40
2019-01-21T23:36:04.509Z,-1.50
2019-01-21T23:38:33.932Z,-1.60
2019-01-21T23:41:03.385Z,-1.60
2019-01-21T23:43:33.145Z,-1.60
2019-01-21T23:46:02.574Z,-1.60
2019-01-21T23:48:31.914Z,-1.60
2019-01-21T23:51:01.384Z,-1.60
2019-01-21T23:53:32.027Z,-1.50
2019-01-21T23:56:01.383Z,-1.50
2019-01-21T23:58:30.767Z,-1.50
